createdAt,value
2022-08-05T00:00:34.218Z,77.46
2022-08-05T00:03:49.848Z,77.45
2022-08-05T00:06:52.143Z,77.53
2022-08-05T00:09:54.618Z,77.79
2022-08-05T00:12:57.128Z,78.04
2022-08-05T00:16:00.414Z,78.08
2022-08-05T00:19:03.155Z,78.26
2022-08-05T00:22:05.274Z,78.37
2022-08-05T00:25:12.696Z,78.45
2022-08-05T00:28:15.827Z,78.39
2022-08-05T00:31:54.264Z,78.35
2022-08-05T00:35:05.263Z,78.35
2022-08-05T00:38:09.474Z,78.45
2022-08-05T00:41:11.804Z,78.37
2022-08-05T00:44:14.577Z,78.68
2022-08-05T00:47:16.584Z,78.86
2022-08-05T00:50:21.054Z,79.01
2022-08-05T00:53:59.833Z,79.06
2022-08-05T00:56:51.445Z,79.12
2022-08-05T00:59:54.099Z,79.25
2022-08-05T01:02:59.800Z,79.26
2022-08-05T01:06:02.648Z,79.38
2022-08-05T01:09:07.602Z,79.66
2022-08-05T01:12:18.018Z,79.84
2022-08-05T01:15:36.166Z,80.01
2022-08-05T01:18:56.200Z,79.92
2022-08-05T01:22:15.368Z,79.96
2022-08-05T01:25:42.053Z,79.90
2022-08-05T01:29:05.080Z,80.15
2022-08-05T01:32:12.128Z,80.29
2022-08-05T01:35:51.558Z,80.32
2022-08-05T01:38:48.434Z,80.29
2022-08-05T01:41:53.373Z,80.34
2022-08-05T01:44:59.160Z,80.31
2022-08-05T01:48:03.840Z,80.47
2022-08-05T01:51:14.695Z,80.45
2022-08-05T01:54:19.359Z,80.47
2022-08-05T01:58:14.798Z,80.45
2022-08-05T02:00:58.869Z,80.38
2022-08-05T02:04:01.724Z,80.37
2022-08-05T02:07:04.313Z,80.27
2022-08-05T02:10:11.229Z,80.21
2022-08-05T02:13:28.688Z,80.37
2022-08-05T02:16:55.547Z,80.45
2022-08-05T02:20:02.129Z,80.41
2022-08-05T02:23:10.782Z,80.77
2022-08-05T02:26:17.179Z,80.83
2022-08-05T02:29:58.182Z,80.79
2022-08-05T02:32:54.328Z,80.82
2022-08-05T02:36:00.638Z,80.98
2022-08-05T02:39:08.702Z,80.82
2022-08-05T02:42:11.629Z,81.12
2022-08-05T02:45:52.688Z,81.24
2022-08-05T02:48:54.471Z,81.37
2022-08-05T02:52:04.089Z,81.32
2022-08-05T02:55:10.922Z,81.37
2022-08-05T02:58:16.753Z,81.51
2022-08-05T03:01:25.576Z,81.70
2022-08-05T03:04:29.994Z,81.52
2022-08-05T03:08:00.191Z,81.44
2022-08-05T03:11:41.125Z,81.61
2022-08-05T03:14:16.687Z,81.75
2022-08-05T03:17:20.248Z,81.76
2022-08-05T03:20:24.540Z,81.74
2022-08-05T03:23:28.038Z,81.71
2022-08-05T03:26:32.386Z,81.66
2022-08-05T03:29:45.444Z,81.68
2022-08-05T03:32:58.509Z,81.50
2022-08-05T03:36:01.717Z,81.53
2022-08-05T03:39:13.194Z,81.53
2022-08-05T03:42:22.631Z,81.31
2022-08-05T03:45:29.798Z,81.32
2022-08-05T03:48:52.464Z,81.58
2022-08-05T03:52:50.622Z,81.68
2022-08-05T03:56:01.887Z,81.83
2022-08-05T03:58:55.488Z,81.94
2022-08-05T04:02:02.888Z,81.82
2022-08-05T04:05:09.601Z,81.89
2022-08-05T04:08:29.623Z,82.12
2022-08-05T04:11:50.685Z,82.23
2022-08-05T04:14:57.636Z,82.15
2022-08-05T04:18:07.886Z,82.21
2022-08-05T04:21:12.280Z,82.20
2022-08-05T04:24:27.625Z,82.21
2022-08-05T04:27:41.616Z,82.22
2022-08-05T04:30:46.067Z,82.13
2022-08-05T04:34:18.576Z,82.17
2022-08-05T04:37:12.889Z,82.13
2022-08-05T04:40:15.149Z,82.13
2022-08-05T04:43:22.002Z,82.08
2022-08-05T04:46:28.500Z,82.23
2022-08-05T04:49:38.368Z,82.20
2022-08-05T04:52:53.399Z,82.10
2022-08-05T04:56:32.275Z,82.09
2022-08-05T04:59:24.274Z,82.27
2022-08-05T05:02:41.724Z,82.44
2022-08-05T05:06:39.653Z,82.45
2022-08-05T05:09:07.538Z,82.29
2022-08-05T05:12:09.852Z,82.14
2022-08-05T05:15:13.667Z,82.28
2022-08-05T05:18:31.333Z,82.04
2022-08-05T05:21:36.236Z,82.08
2022-08-05T05:24:57.373Z,81.97
2022-08-05T05:28:01.832Z,81.87
2022-08-05T05:31:05.785Z,82.04
2022-08-05T05:34:11.245Z,81.99
2022-08-05T05:37:15.389Z,81.89
2022-08-05T05:40:20.366Z,81.49
2022-08-05T05:43:56.616Z,81.20
2022-08-05T05:46:51.173Z,81.00
2022-08-05T05:49:56.695Z,79.52
2022-08-05T05:53:03.381Z,77.97
2022-08-05T05:56:32.936Z,76.63
2022-08-05T05:59:40.280Z,75.52
2022-08-05T06:02:43.231Z,74.52
2022-08-05T06:05:45.430Z,74.11
2022-08-05T06:08:56.515Z,73.05
2022-08-05T06:11:59.931Z,72.72
2022-08-05T06:15:08.150Z,72.15
2022-08-05T06:18:10.363Z,71.85
2022-08-05T06:21:16.793Z,70.73
2022-08-05T06:24:22.514Z,71.25
2022-08-05T06:28:11.203Z,71.11
2022-08-05T06:30:51.878Z,70.63
2022-08-05T06:34:06.754Z,70.83
2022-08-05T06:37:10.758Z,70.33
2022-08-05T06:40:18.539Z,69.60
2022-08-05T06:43:57.273Z,67.66
2022-08-05T06:46:45.981Z,67.38
2022-08-05T06:50:01.648Z,67.40
2022-08-05T06:53:19.656Z,67.00
2022-08-05T06:56:28.215Z,66.33
2022-08-05T06:59:30.417Z,66.68
2022-08-05T07:02:44.846Z,66.66
2022-08-05T07:05:47.165Z,66.50
2022-08-05T07:08:51.948Z,66.70
2022-08-05T07:12:00.351Z,65.68
2022-08-05T07:15:34.171Z,64.90
2022-08-05T07:18:47.936Z,63.79
2022-08-05T07:22:00.480Z,63.51
2022-08-05T07:25:21.890Z,63.28
2022-08-05T07:28:25.340Z,62.84
2022-08-05T07:31:41.092Z,62.74
2022-08-05T07:34:50.238Z,61.31
2022-08-05T07:38:00.221Z,61.44
2022-08-05T07:41:34.959Z,63.10
2022-08-05T07:44:27.048Z,64.24
2022-08-05T07:47:30.429Z,64.73
2022-08-05T07:50:44.698Z,65.22
2022-08-05T07:53:50.494Z,65.30
2022-08-05T07:57:13.863Z,64.49
2022-08-05T08:00:15.650Z,64.30
2022-08-05T08:03:19.255Z,62.89
2022-08-05T08:06:23.695Z,61.80
2022-08-05T08:09:30.450Z,60.49
2022-08-05T08:12:48.657Z,60.13
2022-08-05T08:16:50.137Z,58.53
2022-08-05T08:20:10.050Z,56.75
2022-08-05T08:22:36.135Z,56.89
2022-08-05T08:26:00.611Z,56.16
2022-08-05T08:29:21.597Z,55.34
2022-08-05T08:32:27.802Z,55.86
2022-08-05T08:35:35.103Z,56.51
2022-08-05T08:38:43.657Z,56.73
2022-08-05T08:41:59.727Z,55.91
2022-08-05T08:45:23.562Z,55.38
2022-08-05T08:49:02.903Z,53.16
2022-08-05T08:52:03.248Z,51.26
2022-08-05T08:55:13.265Z,50.92
2022-08-05T08:58:16.926Z,51.27
2022-08-05T09:01:19.972Z,52.66
2022-08-05T09:04:22.587Z,52.14
2022-08-05T09:07:39.810Z,52.50
2022-08-05T09:10:56.044Z,53.63
2022-08-05T09:14:09.182Z,52.59
2022-08-05T09:17:43.108Z,52.84
2022-08-05T09:20:45.959Z,53.14
2022-08-05T09:24:03.089Z,52.85
2022-08-05T09:27:09.722Z,53.24
2022-08-05T09:30:16.476Z,52.59
2022-08-05T09:33:19.583Z,52.58
2022-08-05T09:36:27.620Z,52.10
2022-08-05T09:39:41.622Z,51.54
2022-08-05T09:42:50.069Z,50.92
2022-08-05T09:46:06.153Z,51.73
2022-08-05T09:49:23.217Z,53.05
2022-08-05T09:52:47.575Z,53.19
2022-08-05T09:56:03.780Z,54.91
2022-08-05T09:59:17.265Z,57.57
2022-08-05T10:02:32.235Z,57.81
2022-08-05T10:05:36.256Z,57.85
2022-08-05T10:08:38.968Z,58.82
2022-08-05T10:11:45.851Z,57.92
2022-08-05T10:14:49.968Z,58.36
2022-08-05T10:18:07.623Z,58.86
2022-08-05T10:21:11.881Z,58.79
2022-08-05T10:24:20.655Z,58.30
2022-08-05T10:28:09.400Z,58.01
2022-08-05T10:32:54.988Z,59.11
2022-08-05T10:34:16.912Z,59.07
2022-08-05T10:37:19.383Z,59.43
2022-08-05T10:40:29.411Z,60.36
2022-08-05T10:43:53.742Z,60.39
2022-08-05T10:46:57.124Z,59.81
2022-08-05T10:50:32.695Z,59.91
2022-08-05T10:53:42.674Z,59.18
2022-08-05T10:56:52.893Z,58.99
2022-08-05T11:00:20.435Z,57.18
2022-08-05T11:03:26.935Z,59.05
2022-08-05T11:06:31.404Z,58.79
2022-08-05T11:10:03.656Z,59.76
2022-08-05T11:13:57.973Z,59.62
2022-08-05T11:17:58.769Z,59.76
2022-08-05T11:20:52.332Z,59.81
2022-08-05T11:24:04.359Z,60.63
2022-08-05T11:27:51.365Z,60.86
2022-08-05T11:30:58.333Z,61.25
2022-08-05T11:34:06.386Z,61.03
2022-08-05T11:38:26.509Z,61.27
2022-08-05T11:41:14.071Z,61.51
2022-08-05T11:44:53.029Z,60.22
2022-08-05T11:47:49.922Z,59.25
2022-08-05T11:50:53.652Z,59.16
2022-08-05T11:53:56.334Z,57.72
2022-08-05T11:56:58.662Z,57.59
2022-08-05T12:00:03.980Z,57.47
2022-08-05T12:03:28.782Z,57.56
2022-08-05T12:06:35.928Z,57.78
2022-08-05T12:09:53.309Z,57.67
2022-08-05T12:13:04.180Z,58.07
2022-08-05T12:16:25.580Z,56.84
2022-08-05T12:20:25.399Z,56.31
2022-08-05T12:22:51.961Z,55.92
2022-08-05T12:25:56.909Z,50.33
2022-08-05T12:28:59.340Z,50.63
2022-08-05T12:32:07.411Z,52.07
2022-08-05T12:35:16.882Z,53.18
2022-08-05T12:38:30.191Z,50.87
2022-08-05T12:41:36.495Z,50.82
2022-08-05T12:44:47.601Z,51.02
2022-08-05T12:48:01.745Z,49.09
2022-08-05T12:51:21.689Z,48.64
2022-08-05T12:54:41.359Z,46.85
2022-08-05T12:58:38.671Z,47.16
2022-08-05T13:02:05.418Z,47.00
2022-08-05T13:04:31.220Z,47.27
2022-08-05T13:11:04.071Z,46.34
2022-08-05T13:14:24.917Z,46.58
2022-08-05T13:17:41.998Z,51.60
2022-08-05T13:20:44.851Z,56.04
2022-08-05T13:23:50.765Z,57.46
2022-08-05T13:26:54.524Z,59.55
2022-08-05T13:30:32.571Z,59.59
2022-08-05T13:34:23.040Z,60.14
2022-08-05T13:36:42.782Z,58.80
2022-08-05T13:40:15.992Z,56.46
2022-08-05T13:43:12.104Z,52.38
2022-08-05T13:46:16.523Z,50.74
2022-08-05T13:49:38.143Z,51.81
2022-08-05T13:52:49.903Z,54.50
2022-08-05T13:55:58.771Z,56.09
2022-08-05T13:59:05.965Z,57.03
2022-08-05T14:02:21.274Z,58.33
2022-08-05T14:05:29.546Z,57.12
2022-08-05T14:08:51.168Z,56.48
2022-08-05T14:12:00.374Z,56.94
2022-08-05T14:16:09.128Z,59.13
2022-08-05T14:18:30.027Z,59.26
2022-08-05T14:22:09.558Z,56.08
2022-08-05T14:24:55.031Z,55.91
2022-08-05T14:27:58.401Z,57.14
2022-08-05T14:31:01.388Z,57.57
2022-08-05T14:34:05.770Z,57.67
2022-08-05T14:37:14.352Z,56.76
2022-08-05T14:40:16.770Z,55.27
2022-08-05T14:43:20.362Z,55.54
2022-08-05T14:46:42.414Z,56.93
2022-08-05T14:49:59.569Z,56.66
2022-08-05T14:53:05.612Z,56.75
2022-08-05T14:56:08.282Z,56.80
2022-08-05T14:59:10.326Z,56.20
2022-08-05T15:02:24.197Z,58.14
2022-08-05T15:05:29.851Z,56.88
2022-08-05T15:08:58.482Z,57.47
2022-08-05T15:11:55.193Z,58.49
2022-08-05T15:14:58.877Z,56.11
2022-08-05T15:18:03.771Z,56.80
2022-08-05T15:21:09.883Z,56.42
2022-08-05T15:24:14.455Z,56.30
2022-08-05T15:27:18.864Z,55.47
2022-08-05T15:30:22.450Z,55.28
2022-08-05T15:34:04.127Z,55.39
2022-08-05T15:36:46.824Z,54.75
2022-08-05T15:41:00.017Z,55.16
2022-08-05T15:43:20.058Z,54.66
2022-08-05T15:46:24.953Z,56.49
2022-08-05T15:49:52.031Z,55.66
2022-08-05T15:52:52.885Z,55.36
2022-08-05T15:56:02.797Z,56.96
2022-08-05T15:59:06.624Z,58.41
2022-08-05T16:02:09.520Z,59.20
2022-08-05T16:05:16.771Z,58.77
2022-08-05T16:08:18.908Z,58.82
2022-08-05T16:11:40.109Z,59.36
2022-08-05T16:14:44.486Z,59.01
2022-08-05T16:17:58.057Z,59.38
2022-08-05T16:21:04.365Z,58.39
2022-08-05T16:24:39.496Z,58.11
2022-08-05T16:27:32.126Z,58.62
2022-08-05T16:30:53.042Z,59.61
2022-08-05T16:33:55.781Z,59.78
2022-08-05T16:36:58.116Z,58.43
2022-08-05T16:40:05.138Z,59.28
2022-08-05T16:43:09.494Z,58.61
2022-08-05T16:46:23.737Z,57.58
2022-08-05T16:49:27.148Z,58.37
2022-08-05T16:52:33.632Z,58.80
2022-08-05T16:55:47.155Z,58.72
2022-08-05T16:58:49.797Z,58.30
2022-08-05T17:01:54.240Z,58.59
2022-08-05T17:04:58.538Z,57.90
2022-08-05T17:08:00.770Z,58.40
2022-08-05T17:11:03.962Z,59.15
2022-08-05T17:14:06.713Z,59.65
2022-08-05T17:17:09.396Z,59.57
2022-08-05T17:20:17.283Z,59.11
2022-08-05T17:24:03.134Z,59.19
2022-08-05T17:26:42.010Z,58.79
2022-08-05T17:29:44.633Z,59.83
2022-08-05T17:32:49.098Z,60.87
2022-08-05T17:36:10.037Z,60.34
2022-08-05T17:39:24.224Z,60.54
2022-08-05T17:42:36.313Z,61.21
2022-08-05T17:45:44.610Z,61.14
2022-08-05T17:48:48.037Z,61.76
2022-08-05T17:51:51.533Z,61.81
2022-08-05T17:54:53.791Z,60.66
2022-08-05T17:57:57.547Z,60.60
2022-08-05T18:00:59.556Z,60.37
2022-08-05T18:04:04.443Z,60.82
2022-08-05T18:07:07.854Z,62.02
2022-08-05T18:10:21.026Z,63.05
2022-08-05T18:13:23.502Z,62.98
2022-08-05T18:16:28.146Z,62.91
2022-08-05T18:19:30.284Z,62.85
2022-08-05T18:22:46.141Z,63.54
2022-08-05T18:25:57.743Z,64.39
2022-08-05T18:29:02.419Z,65.19
2022-08-05T18:32:05.328Z,64.60
2022-08-05T18:35:07.759Z,65.59
2022-08-05T18:38:16.435Z,64.72
2022-08-05T18:41:53.342Z,64.61
2022-08-05T18:44:48.922Z,64.41
2022-08-05T18:47:56.788Z,65.00
2022-08-05T18:52:06.598Z,65.93
2022-08-05T18:54:41.358Z,65.71
2022-08-05T18:57:52.767Z,66.07
2022-08-05T19:00:56.452Z,65.08
2022-08-05T19:03:58.807Z,65.47
2022-08-05T19:07:01.853Z,65.67
2022-08-05T19:10:09.419Z,66.23
2022-08-05T19:13:15.706Z,66.01
2022-08-05T19:16:25.435Z,66.04
2022-08-05T19:19:32.409Z,66.28
2022-08-05T19:22:36.353Z,66.32
2022-08-05T19:25:43.730Z,66.25
2022-08-05T19:28:46.475Z,66.42
2022-08-05T19:31:50.931Z,66.39
2022-08-05T19:34:54.924Z,66.53
2022-08-05T19:38:05.937Z,66.95
2022-08-05T19:41:09.779Z,67.24
2022-08-05T19:44:13.507Z,67.45
2022-08-05T19:47:16.769Z,67.68
2022-08-05T19:50:20.175Z,67.85
2022-08-05T19:54:05.363Z,67.93
2022-08-05T19:56:44.994Z,68.42
2022-08-05T19:59:56.487Z,69.02
2022-08-05T20:03:13.978Z,69.39
2022-08-05T20:06:29.040Z,69.93
2022-08-05T20:09:54.351Z,70.20
2022-08-05T20:12:55.306Z,70.16
2022-08-05T20:15:57.909Z,70.57
2022-08-05T20:18:59.996Z,70.89
2022-08-05T20:22:03.893Z,70.90
2022-08-05T20:25:07.294Z,71.13
2022-08-05T20:28:13.677Z,71.37
2022-08-05T20:31:17.607Z,71.69
2022-08-05T20:34:24.288Z,71.82
2022-08-05T20:38:06.054Z,71.79
2022-08-05T20:40:48.495Z,71.73
2022-08-05T20:43:58.728Z,72.10
2022-08-05T20:47:07.392Z,72.09
2022-08-05T20:50:11.355Z,72.16
2022-08-05T20:53:16.210Z,72.68
2022-08-05T20:56:42.121Z,72.74
2022-08-05T20:59:46.104Z,73.13
2022-08-05T21:03:08.128Z,73.51
2022-08-05T21:06:27.772Z,73.44
2022-08-05T21:09:30.814Z,73.55
2022-08-05T21:12:36.895Z,73.53
2022-08-05T21:15:41.209Z,73.91
2022-08-05T21:18:48.743Z,73.90
2022-08-05T21:21:51.311Z,73.95
2022-08-05T21:24:54.875Z,74.04
2022-08-05T21:27:57.043Z,74.30
2022-08-05T21:30:59.886Z,74.47
2022-08-05T21:34:02.472Z,74.09
2022-08-05T21:37:05.358Z,74.42
2022-08-05T21:40:13.787Z,74.64
2022-08-05T21:43:24.750Z,74.38
2022-08-05T21:46:27.047Z,74.59
2022-08-05T21:49:59.272Z,74.75
2022-08-05T21:52:58.608Z,75.19
2022-08-05T21:56:16.499Z,75.64
2022-08-05T21:59:22.557Z,75.75
2022-08-05T22:02:27.675Z,75.86
2022-08-05T22:05:29.827Z,75.84
2022-08-05T22:08:52.603Z,75.86
2022-08-05T22:11:55.031Z,75.90
2022-08-05T22:14:59.227Z,76.07
2022-08-05T22:18:02.138Z,76.24
2022-08-05T22:21:14.139Z,76.19
2022-08-05T22:24:52.384Z,76.31
2022-08-05T22:28:08.641Z,76.48
2022-08-05T22:31:13.712Z,76.61
2022-08-05T22:34:20.336Z,76.80
2022-08-05T22:37:58.159Z,76.58
2022-08-05T22:40:54.867Z,76.65
2022-08-05T22:43:59.280Z,76.83
2022-08-05T22:47:05.716Z,76.75
2022-08-05T22:50:18.121Z,76.81
2022-08-05T22:53:24.592Z,77.02
2022-08-05T22:56:39.961Z,76.79
2022-08-05T22:59:51.802Z,76.81
2022-08-05T23:02:56.578Z,77.01
2022-08-05T23:06:00.455Z,77.20
2022-08-05T23:09:27.003Z,76.89
2022-08-05T23:12:25.862Z,76.70
2022-08-05T23:15:35.332Z,76.76
2022-08-05T23:18:38.608Z,76.95
2022-08-05T23:21:42.815Z,77.05
2022-08-05T23:24:51.271Z,77.21
2022-08-05T23:27:57.668Z,77.39
2022-08-05T23:31:16.883Z,77.33
2022-08-05T23:34:24.462Z,77.31
2022-08-05T23:37:27.434Z,77.33
2022-08-05T23:40:38.798Z,77.76
2022-08-05T23:44:05.832Z,77.87
2022-08-05T23:47:15.101Z,77.83
2022-08-05T23:50:20.296Z,78.16
2022-08-05T23:53:23.292Z,78.28
2022-08-05T23:56:30.569Z,78.20
